Time;durP1;ratioP1;P1;durP2;ratioP2;P2;SDS_P1;SDS_P2;PMS_P1;PMS_P2;Temp;Humidity;BMP_temperature;BMP_pressure;BME280_temperature;BME280_humidity;BME280_pressure;Samples;Min_cycle;Max_cycle;Signal;HPM_P1;HPM_P2
2022/10/22 00:01:42;;;;;;;34.40;21.93;;;;;;;8.97;100.00;100377.63;5130173;28;20344;-57
2022/10/22 00:04:11;;;;;;;32.20;20.77;;;;;;;8.89;100.00;100366.50;5129692;28;20218;-57
2022/10/22 00:06:38;;;;;;;30.60;21.43;;;;;;;8.89;100.00;100360.47;5129758;28;20284;-57
2022/10/22 00:09:05;;;;;;;38.67;20.33;;;;;;;8.85;100.00;100364.78;5129821;28;20297;-57
2022/10/22 00:11:32;;;;;;;30.40;20.97;;;;;;;8.78;100.00;100360.56;5129699;28;20200;-54
2022/10/22 00:13:59;;;;;;;38.97;21.80;;;;;;;8.74;100.00;100358.84;5129547;28;20205;-54
2022/10/22 00:16:25;;;;;;;31.93;20.93;;;;;;;8.74;100.00;100354.53;5128461;28;20204;-55
2022/10/22 00:18:52;;;;;;;32.03;20.77;;;;;;;8.74;100.00;100356.25;5129441;27;20206;-53
2022/10/22 00:21:21;;;;;;;30.07;20.30;;;;;;;8.75;100.00;100350.22;5129584;28;20240;-55
2022/10/22 00:23:48;;;;;;;30.23;20.17;;;;;;;8.68;100.00;100345.97;5129688;28;20204;-54
2022/10/22 00:26:14;;;;;;;37.77;20.67;;;;;;;8.71;100.00;100341.59;5129444;28;20201;-53
2022/10/22 00:28:41;;;;;;;35.73;21.30;;;;;;;8.60;100.00;100337.38;5129689;28;20194;-54
2022/10/22 00:31:08;;;;;;;35.20;19.20;;;;;;;8.54;100.00;100338.31;5130076;28;20224;-54
2022/10/22 00:33:35;;;;;;;32.73;20.67;;;;;;;8.54;100.00;100338.31;5129601;28;20579;-58
2022/10/22 00:36:02;;;;;;;29.53;19.63;;;;;;;8.54;100.00;100340.03;5129549;28;20285;-57
2022/10/22 00:38:30;;;;;;;27.10;19.43;;;;;;;8.60;100.00;100337.38;5129371;28;20232;-58
2022/10/22 00:40:57;;;;;;;35.73;20.27;;;;;;;8.52;100.00;100337.44;5129360;28;20194;-58
2022/10/22 00:43:25;;;;;;;35.03;20.97;;;;;;;8.57;100.00;100332.25;5129538;28;20198;-58
2022/10/22 00:45:52;;;;;;;30.50;19.67;;;;;;;8.57;100.00;100335.69;5129512;27;20255;-58
2022/10/22 00:48:22;;;;;;;31.53;19.73;;;;;;;8.54;100.00;100327.97;5129400;28;20599;-58
2022/10/22 00:50:54;;;;;;;32.17;20.60;;;;;;;8.50;100.00;100327.97;5129505;27;20317;-58
2022/10/22 00:53:26;;;;;;;29.93;19.23;;;;;;;8.62;100.00;100330.47;5133134;27;20254;-57
2022/10/22 00:55:55;;;;;;;30.17;19.70;;;;;;;8.53;100.00;100323.66;5133206;27;20293;-57
2022/10/22 00:58:28;;;;;;;30.93;20.23;;;;;;;8.55;100.00;100328.81;5132852;27;20312;-57
2022/10/22 01:00:56;;;;;;;28.90;19.77;;;;;;;8.60;100.00;100320.13;5132925;27;20190;-54
2022/10/22 01:03:23;;;;;;;32.70;20.60;;;;;;;8.59;100.00;100326.16;5132922;27;20281;-54
2022/10/22 01:05:55;;;;;;;31.43;20.37;;;;;;;8.64;100.00;100321.84;5132887;27;20284;-55
2022/10/22 01:08:32;;;;;;;31.20;20.83;;;;;;;8.64;100.00;100327.00;5132986;27;20197;-53
2022/10/22 01:11:13;;;;;;;34.03;20.33;;;;;;;8.65;100.00;100328.72;5132508;27;20190;-54
2022/10/22 01:13:49;;;;;;;37.27;20.53;;;;;;;8.57;100.00;100327.09;5132812;27;20729;-53
2022/10/22 01:16:21;;;;;;;31.00;20.83;;;;;;;8.52;100.00;100318.47;5132724;27;20194;-54
2022/10/22 01:18:54;;;;;;;30.83;20.37;;;;;;;8.48;100.00;100312.47;5132590;27;20217;-54
2022/10/22 01:21:31;;;;;;;32.20;21.07;;;;;;;8.42;100.00;100307.34;5132491;27;20190;-54
2022/10/22 01:24:23;;;;;;;32.20;21.03;;;;;;;8.35;100.00;100308.28;5132569;27;20204;-54
2022/10/22 01:27:14;;;;;;;31.53;21.17;;;;;;;8.22;100.00;100302.28;5132289;27;20287;-53
2022/10/22 01:29:47;;;;;;;32.43;20.33;;;;;;;8.22;100.00;100310.03;5132206;27;20199;-53
2022/10/22 01:32:17;;;;;;;38.27;21.07;;;;;;;8.17;100.00;100308.34;5132490;27;20202;-54
2022/10/22 01:34:49;;;;;;;34.67;21.97;;;;;;;8.18;100.00;100294.53;5132320;27;20208;-54
2022/10/22 01:37:18;;;;;;;41.93;22.60;;;;;;;8.30;100.00;100312.56;5132070;27;20218;-57
2022/10/22 01:39:47;;;;;;;36.23;21.10;;;;;;;8.28;100.00;100314.31;5131966;27;20194;-57
2022/10/22 01:42:14;;;;;;;37.90;22.00;;;;;;;8.21;100.00;100304.88;5131785;27;20204;-55
2022/10/22 01:44:43;;;;;;;32.47;20.50;;;;;;;8.12;100.00;100313.56;5132177;27;20190;-53
2022/10/22 01:47:18;;;;;;;31.17;20.90;;;;;;;8.18;100.00;100316.09;5131816;27;20200;-54
2022/10/22 01:50:02;;;;;;;31.47;21.30;;;;;;;8.22;100.00;100314.34;5132269;27;20609;-53
2022/10/22 01:52:44;;;;;;;37.63;22.70;;;;;;;8.19;100.00;100304.03;5132021;27;20204;-53
2022/10/22 01:55:20;;;;;;;38.43;21.33;;;;;;;8.09;100.00;100304.97;5131985;27;20190;-57
2022/10/22 01:57:58;;;;;;;35.23;21.07;;;;;;;8.11;100.00;100303.22;5131826;27;20217;-54
2022/10/22 02:00:26;;;;;;;35.70;21.77;;;;;;;8.06;100.00;100308.41;5131890;27;20201;-57
2022/10/22 02:03:00;;;;;;;32.27;21.40;;;;;;;7.96;100.00;100301.56;5131839;27;20194;-53
2022/10/22 02:05:32;;;;;;;32.47;21.07;;;;;;;8.08;100.00;100311.00;5131651;27;20198;-54
2022/10/22 02:08:04;;;;;;;35.73;21.27;;;;;;;8.01;100.00;100310.19;5131620;27;20662;-54
2022/10/22 02:10:31;;;;;;;36.97;21.77;;;;;;;8.11;100.00;100306.66;5131683;27;20189;-54
2022/10/22 02:13:01;;;;;;;36.53;19.90;;;;;;;8.05;100.00;100308.41;5131488;27;20633;-54
2022/10/22 02:15:31;;;;;;;38.73;22.33;;;;;;;8.03;100.00;100306.69;5131414;27;20197;-54
2022/10/22 02:18:00;;;;;;;32.23;21.80;;;;;;;8.02;100.00;100315.31;5131083;27;20217;-58
2022/10/22 02:20:31;;;;;;;32.50;20.60;;;;;;;7.91;100.00;100309.34;5131617;27;20641;-57
2022/10/22 02:22:59;;;;;;;32.07;20.93;;;;;;;7.91;100.00;100311.94;5131207;27;20589;-57
2022/10/22 02:25:30;;;;;;;39.97;21.07;;;;;;;7.87;100.00;100307.66;5131281;27;20194;-54
2022/10/22 02:28:05;;;;;;;33.20;21.30;;;;;;;7.84;100.00;100315.44;5130739;27;20230;-54
2022/10/22 02:30:35;;;;;;;32.43;20.90;;;;;;;7.82;100.00;100314.56;5131162;27;20204;-54
2022/10/22 02:33:07;;;;;;;38.70;21.90;;;;;;;7.89;100.00;100305.94;5131062;27;20285;-54
2022/10/22 02:35:36;;;;;;;39.07;21.23;;;;;;;7.93;100.00;100311.94;5131236;27;20193;-54
2022/10/22 02:38:04;;;;;;;33.23;19.77;;;;;;;7.77;100.00;100300.81;5130988;27;20617;-57
2022/10/22 02:40:32;;;;;;;35.87;20.10;;;;;;;7.72;100.00;100312.91;5130936;27;20281;-58
2022/10/22 02:42:59;;;;;;;31.30;20.93;;;;;;;7.69;100.00;100312.91;5130972;27;20327;-57
2022/10/22 02:45:26;;;;;;;34.00;20.67;;;;;;;7.59;100.00;100306.91;5131284;27;20715;-58
2022/10/22 02:47:54;;;;;;;37.67;20.90;;;;;;;7.62;100.00;100313.81;5131217;27;20293;-57
2022/10/22 02:50:21;;;;;;;33.07;20.63;;;;;;;7.56;100.00;100313.84;5130981;27;20194;-57
2022/10/22 02:52:48;;;;;;;36.27;20.90;;;;;;;7.45;100.00;100308.69;5130855;27;20285;-57
2022/10/22 02:55:15;;;;;;;31.70;21.23;;;;;;;7.40;100.00;100312.16;5130487;27;20189;-57
2022/10/22 02:57:42;;;;;;;29.70;20.70;;;;;;;7.24;100.00;100304.44;5130909;27;20711;-57
2022/10/22 03:00:11;;;;;;;30.43;20.93;;;;;;;7.34;100.00;100307.88;5130709;27;20216;-58
2022/10/22 03:02:38;;;;;;;34.93;20.27;;;;;;;7.38;100.00;100306.13;5130461;27;20194;-58
2022/10/22 03:05:07;;;;;;;27.73;20.30;;;;;;;7.44;100.00;100311.31;5130498;27;20591;-58
2022/10/22 03:07:34;;;;;;;32.63;21.60;;;;;;;7.37;100.00;100304.41;5130511;27;20194;-57
2022/10/22 03:10:01;;;;;;;37.33;21.60;;;;;;;7.31;100.00;100314.78;5130310;27;20197;-58
2022/10/22 03:12:28;;;;;;;34.23;21.63;;;;;;;7.29;100.00;100312.19;5130688;27;20316;-57
2022/10/22 03:14:55;;;;;;;31.20;21.70;;;;;;;7.23;100.00;100314.78;5130089;27;20189;-58
2022/10/22 03:17:22;;;;;;;30.60;20.47;;;;;;;7.25;100.00;100313.91;5130265;27;20196;-58
2022/10/22 03:19:49;;;;;;;33.63;21.20;;;;;;;7.23;100.00;100307.91;5130519;27;20231;-58
2022/10/22 03:22:21;;;;;;;34.97;21.10;;;;;;;7.24;100.00;100303.59;5130069;27;20194;-58
2022/10/22 03:24:52;;;;;;;35.20;21.97;;;;;;;7.31;100.00;100296.72;5130602;27;20193;-58
2022/10/22 03:27:21;;;;;;;31.93;20.63;;;;;;;7.39;100.00;100300.13;5129889;27;20232;-58
2022/10/22 03:29:50;;;;;;;34.50;21.37;;;;;;;7.32;100.00;100288.09;5130318;27;20276;-58
2022/10/22 03:32:18;;;;;;;34.33;21.33;;;;;;;7.34;100.00;100296.66;5129966;27;20284;-57
2022/10/22 03:34:44;;;;;;;36.50;21.43;;;;;;;7.29;100.00;100301.88;5130059;27;20617;-58
2022/10/22 03:37:12;;;;;;;34.57;21.07;;;;;;;7.23;100.00;100296.72;5129996;27;20197;-58
2022/10/22 03:39:41;;;;;;;39.50;25.70;;;;;;;7.20;100.00;100296.75;5129919;27;20218;-57
2022/10/22 03:42:08;;;;;;;38.47;24.00;;;;;;;7.16;100.00;100298.47;5129026;28;20198;-57
2022/10/22 03:44:36;;;;;;;38.33;24.83;;;;;;;7.17;100.00;100283.84;5129533;28;20235;-57
2022/10/22 03:47:03;;;;;;;35.37;22.40;;;;;;;7.23;100.00;100284.66;5130160;28;20200;-56
2022/10/22 03:49:30;;;;;;;32.63;21.13;;;;;;;7.22;100.00;100289.84;5129722;28;20592;-53
2022/10/22 03:51:57;;;;;;;33.60;21.90;;;;;;;7.19;100.00;100295.03;5129943;28;20209;-53
2022/10/22 03:54:24;;;;;;;40.53;22.83;;;;;;;7.17;100.00;100297.59;5129771;28;20204;-52
2022/10/22 03:56:52;;;;;;;36.30;21.63;;;;;;;7.19;100.00;100288.13;5130249;28;20554;-56
2022/10/22 03:59:19;;;;;;;28.43;21.00;;;;;;;7.22;100.00;100295.84;5129818;28;20606;-56
2022/10/22 04:01:46;;;;;;;34.87;22.57;;;;;;;7.16;100.00;100305.34;5129080;28;20212;-57
2022/10/22 04:04:13;;;;;;;32.20;20.87;;;;;;;7.19;100.00;100300.19;5127851;28;20196;-57
2022/10/22 04:06:40;;;;;;;33.13;21.60;;;;;;;7.21;100.00;100304.47;5128594;28;20190;-57
2022/10/22 04:09:07;;;;;;;34.87;21.73;;;;;;;7.25;100.00;100306.19;5128338;27;20281;-57
2022/10/22 04:11:34;;;;;;;36.67;21.90;;;;;;;7.35;100.00;100306.13;5128936;28;20204;-57
2022/10/22 04:14:02;;;;;;;31.57;21.07;;;;;;;7.41;100.00;100307.00;5129023;28;20582;-57
2022/10/22 04:16:31;;;;;;;36.07;21.37;;;;;;;7.32;100.00;100303.59;5129633;28;20202;-57
2022/10/22 04:18:59;;;;;;;34.43;22.00;;;;;;;7.33;100.00;100305.31;5129837;28;20243;-57
2022/10/22 04:21:25;;;;;;;39.20;22.70;;;;;;;7.32;100.00;100306.19;5129724;28;20202;-57
2022/10/22 04:23:53;;;;;;;38.10;22.30;;;;;;;7.28;100.00;100326.84;5129862;28;20193;-57
2022/10/22 04:26:20;;;;;;;38.60;22.10;;;;;;;7.23;100.00;100313.06;5129674;27;20194;-56
2022/10/22 04:28:49;;;;;;;41.17;22.60;;;;;;;7.27;100.00;100309.63;5133619;27;20190;-57
2022/10/22 04:31:18;;;;;;;36.23;22.67;;;;;;;7.21;100.00;100319.97;5133280;27;20197;-57
2022/10/22 04:33:46;;;;;;;35.63;22.67;;;;;;;7.08;100.00;100304.50;5133580;27;20205;-57
2022/10/22 04:36:15;;;;;;;38.97;22.67;;;;;;;7.11;100.00;100320.84;5133541;27;20212;-57
2022/10/22 04:38:43;;;;;;;35.40;22.47;;;;;;;7.04;100.00;100323.44;5132845;27;20233;-57
2022/10/22 04:41:12;;;;;;;37.97;21.47;;;;;;;7.16;100.00;100321.69;5131877;27;20649;-57
2022/10/22 04:43:39;;;;;;;32.00;21.63;;;;;;;7.09;100.00;100324.31;5132562;27;20564;-59
2022/10/22 04:46:08;;;;;;;34.83;22.13;;;;;;;7.12;100.00;100322.56;5133308;27;20693;-56
2022/10/22 04:48:36;;;;;;;29.53;20.30;;;;;;;7.14;100.00;100313.09;5133533;27;20568;-57
2022/10/22 04:51:05;;;;;;;32.93;21.90;;;;;;;7.27;100.00;100306.19;5133666;27;20613;-58
2022/10/22 04:53:34;;;;;;;41.20;21.23;;;;;;;7.21;100.00;100309.66;5133338;27;20874;-57
2022/10/22 04:56:08;;;;;;;41.67;22.30;;;;;;;7.08;100.00;100300.22;5133008;27;20255;-57
2022/10/22 04:58:35;;;;;;;30.97;21.13;;;;;;;7.05;100.00;100300.22;5133150;27;20316;-58
2022/10/22 05:01:10;;;;;;;28.73;20.27;;;;;;;7.03;100.00;100291.59;5132889;27;20222;-58
2022/10/22 05:03:38;;;;;;;30.50;20.40;;;;;;;7.12;100.00;100291.56;5121154;27;20221;-58
2022/10/22 05:06:06;;;;;;;35.07;21.53;;;;;;;7.16;100.00;100295.03;5111727;28;20246;-54
2022/10/22 05:08:33;;;;;;;36.17;21.27;;;;;;;7.26;100.00;100292.41;5123780;27;20786;-54
2022/10/22 05:11:00;;;;;;;30.20;19.00;;;;;;;7.43;100.00;100287.19;5128282;27;20194;-53
2022/10/22 05:13:27;;;;;;;30.10;18.83;;;;;;;7.70;100.00;100286.19;5132385;27;20193;-54
2022/10/22 05:15:53;;;;;;;39.17;20.83;;;;;;;8.09;100.00;100292.03;5132730;27;20198;-54
2022/10/22 05:18:20;;;;;;;29.43;18.83;;;;;;;8.33;100.00;100289.31;5132602;27;20217;-54
2022/10/22 05:20:49;;;;;;;32.77;19.37;;;;;;;8.44;100.00;100289.22;5132767;27;20225;-53
2022/10/22 05:23:16;;;;;;;31.00;18.30;;;;;;;8.47;100.00;100289.19;5132217;27;20274;-54
2022/10/22 05:25:43;;;;;;;33.83;19.27;;;;;;;8.65;100.00;100299.41;5131449;27;20288;-57
2022/10/22 05:28:09;;;;;;;31.33;18.83;;;;;;;9.14;100.00;100301.53;5128255;27;20232;-57
2022/10/22 05:30:36;;;;;;;28.33;18.33;;;;;;;9.98;100.00;100298.75;5131434;27;20216;-58
2022/10/22 05:33:03;;;;;;;25.63;17.70;;;;;;;10.82;98.16;100306.16;5131306;27;20414;-57
2022/10/22 05:35:30;;;;;;;27.83;18.20;;;;;;;11.82;92.32;100306.84;5128628;27;20661;-58
2022/10/22 05:37:59;;;;;;;27.83;18.77;;;;;;;12.50;87.56;100304.41;5130520;27;20657;-57
2022/10/22 05:40:25;;;;;;;26.43;18.40;;;;;;;13.24;83.26;100303.41;5130632;27;20224;-57
2022/10/22 05:42:52;;;;;;;36.60;19.10;;;;;;;13.60;80.29;100307.63;5132599;27;20729;-57
2022/10/22 05:45:19;;;;;;;28.17;17.93;;;;;;;14.09;78.29;100303.56;5132210;27;20280;-58
2022/10/22 05:47:46;;;;;;;24.73;17.77;;;;;;;15.16;73.52;100304.38;5132116;27;20196;-59
2022/10/22 05:50:13;;;;;;;23.87;18.17;;;;;;;15.67;71.13;100307.84;5111951;27;20330;-58
2022/10/22 05:52:40;;;;;;;22.33;16.43;;;;;;;16.42;68.27;100293.56;5121265;27;20217;-57
2022/10/22 05:55:09;;;;;;;24.83;17.00;;;;;;;17.31;65.16;100301.19;5129100;27;20218;-58
2022/10/22 05:57:36;;;;;;;25.80;18.07;;;;;;;18.18;62.44;100305.09;5129324;27;20201;-57
2022/10/22 06:00:03;;;;;;;26.67;18.23;;;;;;;18.99;59.23;100305.47;5129447;27;20210;-57
2022/10/22 06:02:30;;;;;;;28.98;19.63;;;;;;;19.04;57.76;100298.22;5127821;27;20200;-58
2022/10/22 06:04:56;;;;;;;35.65;20.48;;;;;;;19.83;55.24;100314.25;5130093;27;20197;-55
2022/10/22 06:07:23;;;;;;;32.42;20.02;;;;;;;20.00;54.27;100321.22;5130708;27;20208;-54
2022/10/22 06:09:52;;;;;;;26.92;18.73;;;;;;;20.56;52.75;100321.59;5128003;27;20190;-55
2022/10/22 06:12:20;;;;;;;29.85;20.27;;;;;;;20.59;51.76;100308.22;5130639;27;20279;-54
2022/10/22 06:14:47;;;;;;;34.20;18.77;;;;;;;21.05;49.53;100315.25;5130715;27;20660;-54
2022/10/22 06:17:14;;;;;;;31.02;19.75;;;;;;;21.42;48.63;100306.00;5130488;27;20574;-58
2022/10/22 06:19:42;;;;;;;26.95;17.80;;;;;;;21.54;47.98;100311.41;5130159;27;20581;-58
2022/10/22 06:22:09;;;;;;;24.50;18.15;;;;;;;22.19;46.17;100314.38;5129105;27;20213;-58
2022/10/22 06:24:36;;;;;;;22.17;17.63;;;;;;;22.03;45.76;100318.91;5130206;27;20221;-57
2022/10/22 06:27:03;;;;;;;24.17;18.17;;;;;;;22.55;44.85;100321.72;5130422;27;20231;-61
2022/10/22 06:29:31;;;;;;;23.30;17.48;;;;;;;22.73;43.77;100322.28;5130297;27;20204;-59
2022/10/22 06:31:58;;;;;;;22.63;15.95;;;;;;;22.86;43.22;100323.22;5130081;27;20196;-60
2022/10/22 06:34:25;;;;;;;19.40;15.93;;;;;;;23.35;41.75;100326.03;5130237;27;20194;-60
2022/10/22 06:36:52;;;;;;;16.77;14.98;;;;;;;23.33;41.18;100327.94;5130460;27;20198;-60
2022/10/22 06:39:19;;;;;;;22.23;15.63;;;;;;;23.10;41.65;100318.91;5130936;27;20233;-59
2022/10/22 06:41:46;;;;;;;18.13;14.43;;;;;;;22.18;43.03;100330.31;5131179;27;20193;-59
2022/10/22 06:44:15;;;;;;;23.45;17.08;;;;;;;20.54;47.05;100335.81;5130807;27;20201;-59
2022/10/22 06:46:43;;;;;;;18.60;15.10;;;;;;;19.39;49.96;100325.34;5130785;27;20208;-59
2022/10/22 06:49:13;;;;;;;16.92;14.82;;;;;;;18.26;52.43;100313.50;5129998;27;20196;-58
2022/10/22 06:51:40;;;;;;;18.80;12.40;;;;;;;17.14;55.96;100319.44;5130950;27;20688;-61
2022/10/22 06:54:07;;;;;;;22.03;14.07;;;;;;;15.89;60.21;100322.69;5130908;27;20285;-60
2022/10/22 06:56:34;;;;;;;26.40;19.10;;;;;;;15.46;62.27;100327.78;5130855;27;20190;-61
2022/10/22 06:59:01;;;;;;;25.57;16.17;;;;;;;15.18;63.88;100330.50;5130367;27;20253;-59
2022/10/22 07:01:32;;;;;;;32.17;18.80;;;;;;;14.81;65.99;100336.97;5130869;27;20616;-59
2022/10/22 07:04:01;;;;;;;21.97;17.87;;;;;;;14.53;66.81;100313.50;5130563;27;20197;-60
2022/10/22 07:06:29;;;;;;;25.87;17.33;;;;;;;14.13;68.63;100320.81;5130606;27;20203;-60
2022/10/22 07:08:57;;;;;;;30.77;18.77;;;;;;;14.11;69.82;100338.28;5130710;27;20666;-60
2022/10/22 07:11:25;;;;;;;24.17;16.13;;;;;;;14.24;68.83;100339.63;5130396;27;20194;-63
2022/10/22 07:13:54;;;;;;;28.87;14.60;;;;;;;14.28;68.90;100340.41;5130296;27;20201;-61
2022/10/22 07:16:21;;;;;;;24.50;16.77;;;;;;;14.43;68.78;100332.13;5130337;27;20197;-60
2022/10/22 07:18:48;;;;;;;35.63;15.27;;;;;;;14.47;68.92;100328.50;5130455;27;20204;-61
2022/10/22 07:21:19;;;;;;;23.37;15.83;;;;;;;14.30;69.13;100323.78;5130252;27;20284;-60
2022/10/22 07:23:46;;;;;;;22.83;15.60;;;;;;;14.14;70.27;100318.19;5130283;27;20263;-62
2022/10/22 07:26:15;;;;;;;22.40;15.53;;;;;;;14.12;70.20;100324.34;5129775;27;20198;-55
2022/10/22 07:28:42;;;;;;;25.27;16.10;;;;;;;14.16;70.17;100323.34;5130443;27;20198;-55
2022/10/22 07:31:11;;;;;;;18.40;15.50;;;;;;;14.14;70.29;100319.94;5130230;27;20544;-55
2022/10/22 07:33:39;;;;;;;24.77;17.63;;;;;;;13.96;71.54;100328.31;5130479;27;20601;-55
2022/10/22 07:36:08;;;;;;;28.27;18.30;;;;;;;13.73;72.45;100316.81;5130158;27;20190;-55
2022/10/22 07:38:36;;;;;;;23.13;17.83;;;;;;;13.80;72.18;100320.94;5130097;27;20216;-55
2022/10/22 07:41:03;;;;;;;29.47;17.50;;;;;;;13.70;73.17;100292.53;5129983;27;20628;-55
2022/10/22 07:43:30;;;;;;;22.17;17.17;;;;;;;14.04;72.41;100315.88;5130213;28;20193;-55
2022/10/22 07:45:58;;;;;;;21.83;15.80;;;;;;;14.14;72.70;100317.31;5130398;28;20194;-56
2022/10/22 07:48:25;;;;;;;24.13;17.73;;;;;;;14.08;72.33;100323.59;5129491;28;20220;-55
2022/10/22 07:50:52;;;;;;;25.57;18.20;;;;;;;13.94;73.08;100325.75;5129905;28;20284;-55
2022/10/22 07:53:20;;;;;;;29.47;16.77;;;;;;;13.76;73.80;100301.06;5129475;28;20243;-55
2022/10/22 07:55:50;;;;;;;24.00;16.17;;;;;;;13.79;74.08;100315.75;5130164;28;20293;-60
2022/10/22 07:58:17;;;;;;;33.70;20.27;;;;;;;13.72;75.01;100309.88;5129919;28;20193;-59
2022/10/22 08:00:45;;;;;;;31.67;18.00;;;;;;;13.85;74.32;100305.16;5130994;27;20286;-60
2022/10/22 08:03:13;;;;;;;34.13;15.40;;;;;;;13.76;74.53;100321.09;5134195;27;20194;-60
2022/10/22 08:05:42;;;;;;;30.30;14.07;;;;;;;13.69;74.34;100316.94;5134133;27;20190;-59
2022/10/22 08:08:10;;;;;;;22.27;12.77;;;;;;;13.76;74.03;100305.44;5133922;27;20692;-59
2022/10/22 08:10:37;;;;;;;19.40;12.03;;;;;;;13.80;74.08;100305.28;5133900;27;20189;-59
2022/10/22 08:13:06;;;;;;;20.90;12.37;;;;;;;13.79;74.01;100306.19;5133963;27;20201;-60
2022/10/22 08:15:33;;;;;;;26.20;12.40;;;;;;;13.86;73.86;100312.09;5134228;27;20585;-60
2022/10/22 08:18:00;;;;;;;24.10;14.80;;;;;;;13.93;73.58;100307.53;5133719;27;20197;-60
2022/10/22 08:20:27;;;;;;;21.90;12.20;;;;;;;14.03;73.09;100303.75;5133535;27;20217;-60
2022/10/22 08:22:54;;;;;;;18.07;12.27;;;;;;;14.01;72.85;100302.94;5133735;27;20194;-60
2022/10/22 08:25:21;;;;;;;14.83;11.23;;;;;;;13.96;73.18;100302.22;5133456;27;20198;-60
2022/10/22 08:27:48;;;;;;;15.87;11.90;;;;;;;13.89;74.15;100305.91;5133447;27;20232;-60
2022/10/22 08:30:17;;;;;;;17.90;12.27;;;;;;;13.98;74.22;100295.22;5133653;27;20599;-60
2022/10/22 08:32:44;;;;;;;15.83;11.50;;;;;;;13.97;74.98;100298.72;5134213;27;20278;-59
2022/10/22 08:35:11;;;;;;;17.27;12.27;;;;;;;13.95;74.85;100297.91;5133197;27;20289;-59
2022/10/22 08:37:38;;;;;;;16.43;11.13;;;;;;;14.00;75.11;100296.00;5133767;27;20204;-60
2022/10/22 08:40:06;;;;;;;17.80;11.33;;;;;;;14.14;74.96;100291.22;5133243;27;20226;-60
2022/10/22 08:42:58;;;;;;;14.53;11.50;;;;;;;14.34;74.24;100298.41;5133522;27;20193;-60
2022/10/22 08:45:34;;;;;;;17.63;11.57;;;;;;;14.31;73.68;100293.31;5117083;27;20697;-59
2022/10/22 08:48:20;;;;;;;14.83;11.27;;;;;;;14.23;74.00;100290.91;5111751;28;20217;-60
2022/10/22 08:50:49;;;;;;;17.37;11.20;;;;;;;14.30;74.35;100291.59;5120219;27;20220;-61
2022/10/22 08:53:19;;;;;;;14.33;10.70;;;;;;;14.18;73.73;100246.69;5132768;27;20193;-61
2022/10/22 08:55:48;;;;;;;21.83;10.50;;;;;;;14.38;73.47;100274.78;5132394;27;20597;-59
2022/10/22 08:58:22;;;;;;;12.00;10.30;;;;;;;14.34;73.67;100247.03;5132308;27;20219;-60
2022/10/22 09:00:58;;;;;;;23.07;10.77;;;;;;;14.61;72.97;100270.59;5132810;27;20257;-59
2022/10/22 09:03:36;;;;;;;16.80;10.77;;;;;;;14.60;72.35;100268.88;5132685;27;20233;-60
2022/10/22 09:06:09;;;;;;;17.93;10.47;;;;;;;14.75;72.12;100265.75;5132787;27;20200;-60
2022/10/22 09:08:37;;;;;;;16.07;11.43;;;;;;;14.81;71.38;100262.94;5132888;27;20205;-60
2022/10/22 09:11:14;;;;;;;13.53;10.87;;;;;;;14.92;70.97;100260.78;5132788;27;20347;-60
2022/10/22 09:13:43;;;;;;;13.40;10.80;;;;;;;14.88;71.00;100254.00;5131893;27;20639;-59
2022/10/22 09:16:17;;;;;;;18.97;11.47;;;;;;;14.89;71.27;100253.94;5132327;27;20208;-55
2022/10/22 09:18:52;;;;;;;19.07;10.73;;;;;;;15.06;71.23;100258.56;5132305;27;20210;-55
2022/10/22 09:21:27;;;;;;;18.70;10.70;;;;;;;15.15;69.89;100245.16;5132294;27;20221;-60
2022/10/22 09:24:03;;;;;;;20.13;10.37;;;;;;;14.98;69.32;100194.38;5132872;27;20654;-59
2022/10/22 09:26:32;;;;;;;53.43;14.37;;;;;;;15.36;69.61;100242.66;5132202;27;20271;-60
2022/10/22 09:29:01;;;;;;;25.57;12.27;;;;;;;15.53;68.79;100243.75;5132833;27;20198;-60
2022/10/22 09:31:31;;;;;;;19.20;10.93;;;;;;;15.46;68.30;100230.97;5131987;27;20189;-60
2022/10/22 09:33:58;;;;;;;15.10;10.67;;;;;;;15.68;68.35;100242.38;5132079;27;20236;-61
2022/10/22 09:36:28;;;;;;;22.77;12.53;;;;;;;15.94;69.20;100242.19;5132146;27;20206;-60
2022/10/22 09:38:56;;;;;;;21.80;11.33;;;;;;;16.15;66.57;100235.25;5132271;27;20190;-61
2022/10/22 09:41:25;;;;;;;19.60;11.00;;;;;;;16.25;65.58;100243.63;5132019;27;20705;-61
2022/10/22 09:43:52;;;;;;;30.83;13.03;;;;;;;16.42;64.27;100238.53;5132340;27;20209;-61
2022/10/22 09:46:22;;;;;;;39.23;12.03;;;;;;;16.46;64.14;100226.16;5132077;27;20279;-61
2022/10/22 09:48:59;;;;;;;16.90;10.40;;;;;;;16.29;63.99;100203.25;5132253;27;20194;-61
2022/10/22 09:51:42;;;;;;;29.20;12.87;;;;;;;16.58;63.03;100221.25;5131608;27;20197;-59
2022/10/22 09:54:17;;;;;;;16.83;10.93;;;;;;;16.67;65.02;100204.31;5131598;27;20595;-58
2022/10/22 09:56:51;;;;;;;20.63;12.53;;;;;;;16.87;63.54;100200.81;5131245;27;20193;-59
2022/10/22 09:59:24;;;;;;;27.10;12.37;;;;;;;17.01;63.34;100194.06;5131445;27;20666;-60
2022/10/22 10:01:59;;;;;;;16.97;12.03;;;;;;;17.07;61.74;100198.19;5129155;27;20228;-60
2022/10/22 10:04:27;;;;;;;18.93;12.73;;;;;;;17.06;61.26;100193.84;5128236;27;20666;-60
2022/10/22 10:06:55;;;;;;;19.53;12.90;;;;;;;17.02;61.77;100192.28;5131134;27;20281;-60
2022/10/22 10:09:25;;;;;;;22.97;13.97;;;;;;;16.90;61.84;100188.44;5131051;27;20220;-55
2022/10/22 10:11:57;;;;;;;22.33;12.30;;;;;;;16.88;62.02;100181.56;5131137;27;20285;-55
2022/10/22 10:14:33;;;;;;;16.77;11.83;;;;;;;16.66;62.41;100160.69;5131573;27;20197;-54
2022/10/22 10:17:08;;;;;;;15.37;12.20;;;;;;;16.64;62.59;100167.75;5131363;27;20211;-55
2022/10/22 10:19:55;;;;;;;28.27;12.57;;;;;;;16.62;62.53;100177.44;5131438;27;20196;-54
2022/10/22 10:22:37;;;;;;;20.07;12.27;;;;;;;16.51;63.05;100172.63;5131305;27;20281;-57
2022/10/22 10:25:24;;;;;;;20.67;12.53;;;;;;;16.51;63.32;100169.16;5131121;27;20237;-61
2022/10/22 10:28:01;;;;;;;19.47;11.67;;;;;;;16.50;62.88;100149.97;5131094;27;20615;-62
2022/10/22 10:30:28;;;;;;;21.00;10.67;;;;;;;16.46;62.81;100155.41;5121539;27;20229;-62
2022/10/22 10:33:08;;;;;;;13.77;11.20;;;;;;;16.52;62.85;100155.13;5110450;28;20198;-63
2022/10/22 10:35:46;;;;;;;16.67;11.00;;;;;;;16.72;61.83;100156.91;5110313;28;20191;-63
2022/10/22 10:38:38;;;;;;;19.27;10.70;;;;;;;16.73;61.31;100142.91;5117121;27;20192;-62
2022/10/22 10:41:22;;;;;;;15.03;9.90;;;;;;;16.66;61.43;100134.47;5127076;27;20229;-63
2022/10/22 10:44:04;;;;;;;13.23;9.87;;;;;;;16.79;61.19;100137.41;5130389;27;20249;-62
2022/10/22 10:46:39;;;;;;;12.60;9.90;;;;;;;16.76;61.62;100127.03;5130462;27;20308;-62
2022/10/22 10:49:10;;;;;;;16.03;10.00;;;;;;;16.69;62.03;100127.31;5130137;27;20240;-62
2022/10/22 10:51:52;;;;;;;11.83;9.63;;;;;;;16.74;61.10;100105.28;5129835;27;20218;-62
2022/10/22 10:54:31;;;;;;;16.53;9.93;;;;;;;16.85;60.65;100100.41;5130261;27;20218;-62
2022/10/22 10:57:03;;;;;;;13.23;11.37;;;;;;;16.67;60.69;100079.34;5129757;27;20270;-62
2022/10/22 10:59:44;;;;;;;16.13;9.97;;;;;;;16.84;60.92;100096.94;5130024;27;20220;-62
2022/10/22 11:02:41;;;;;;;12.37;9.40;;;;;;;16.87;60.51;100094.19;5129698;27;20222;-62
2022/10/22 11:05:32;;;;;;;11.83;9.20;;;;;;;16.93;60.16;100083.41;5113286;27;20304;-62
2022/10/22 11:08:06;;;;;;;12.03;8.73;;;;;;;16.95;59.42;100088.56;5126391;27;20257;-62
2022/10/22 11:10:39;;;;;;;12.23;10.43;;;;;;;17.01;59.16;100088.31;5129926;27;20210;-62
2022/10/22 11:13:15;;;;;;;16.93;11.00;;;;;;;16.97;59.03;100078.88;5129487;27;20313;-62
2022/10/22 11:15:47;;;;;;;19.83;10.30;;;;;;;16.99;58.62;100058.69;5130041;27;20648;-62
2022/10/22 11:18:21;;;;;;;14.27;10.40;;;;;;;17.02;59.00;100050.66;5129922;27;20731;-62
2022/10/22 11:21:03;;;;;;;14.93;10.30;;;;;;;17.08;58.56;100046.91;5129238;27;20226;-61
2022/10/22 11:23:37;;;;;;;15.33;10.00;;;;;;;17.13;58.56;100048.41;5129719;27;20221;-58